Latest Coastal Weather Observations for Wynyard

IDT60701

Issued at 12:12 pm EDT Saturday 10 December 2016 (issued every 10 minutes, with the page automatically refreshed every 10 minutes)

About coastal observations | Map of coastal stations | Coastal observations for TAS | Marine services | Other Formats
Station Details ID: 091107 Name: WYNYARD AIRPORT Lat: -41.00 Lon: 145.73 Height: 12.0 m
Data from the previous 72 hours. | See also: Recent months at Wynyard
Date/Time
EDT
Temp
°C
Wind Pressure Rain since
9am
mm
Weather Cloud Vis
km
Sea
Height
m
Swell
Dir  Spd
kts
Gust
kts
hPa Trend Height
m
Period
s
Dir
10/12:00pm 16.5 WSW 11 17 1020.2 - 0.0 - Cloudy 10 - - - -
10/11:30am 16.6 W 13 18 1020.3 - 0.0 - Partly cloudy 10 - - - -
10/11:00am 15.7 W 15 22 1020.5 - 0.0 - Partly cloudy 10 - - - -
10/10:30am 16.1 W 16 21 1020.6 - 0.0 - Partly cloudy 10 - - - -
10/10:00am 15.5 W 13 19 1020.5 - 0.0 - Partly cloudy 10 - - - -
10/09:30am 14.6 WSW 16 22 1020.7 - 0.0 - Partly cloudy 10 - - - -
10/09:00am 13.9 W 14 18 1020.6 - 0.0 - Cloudy 10 - - - -
10/08:30am 13.8 WSW 14 19 1020.5 - 0.0 - Partly cloudy 10 - - - -
10/08:00am 13.4 W 13 20 1020.4 - 0.0 - Partly cloudy 10 - - - -
10/07:30am 11.8 WNW 8 10 1020.1 - 0.0 - - 10 - - - -
10/07:00am 10.9 WNW 9 13 1019.8 - 0.0 - - 10 - - - -
10/06:30am 9.9 WNW 5 8 1019.6 - 0.0 - Partly cloudy 10 - - - -
10/06:00am 8.6 WNW 2 4 1019.2 - 0.0 - Cloudy 10 - - - -
10/05:30am 9.4 NNW 4 5 1018.8 - 0.0 - Partly cloudy 10 - - - -
10/05:00am 9.7 NNW 5 6 1018.5 - 0.0 - Partly cloudy 10 - - - -
10/04:30am 9.5 WNW 5 6 1018.4 - 0.0 - Partly cloudy 10 - - - -
10/04:00am 9.6 WNW 5 6 1018.4 - 0.0 - Cloudy 10 - - - -
10/03:30am 9.7 NW 6 7 1018.4 - 0.0 - Cloudy 10 - - - -
10/03:00am 9.7 NW 5 6 1018.6 - 0.0 - Cloudy 10 - - - -
10/02:30am 9.5 NW 5 6 1018.7 - 0.0 - Cloudy 10 - - - -
10/02:00am 9.3 NW 5 6 1019.0 - 0.0 - Cloudy 10 - - - -
10/01:30am 8.9 WNW 5 6 1018.9 - 0.0 - Partly cloudy 10 - - - -
10/01:00am 8.4 W 7 10 1018.9 - 0.0 - - 10 - - - -
10/12:30am 8.2 W 9 11 1018.8 - 0.0 - - 10 - - - -
10/12:00am 8.8 W 11 14 1019.0 - 0.0 - - 10 - - - -
 
Date/Time
EDT
Temp
°C
Wind Pressure Rain since
9am
mm
Weather Cloud Vis
km
Sea
Height
m
Swell
Dir  Spd
kts
Gust
kts
hPa Trend Height
m
Period
s
Dir
09/11:30pm 9.1 W 9 14 1018.8 - 0.0 - - 10 - - - -
09/11:00pm 9.6 W 11 15 1018.9 - 0.0 - Partly cloudy 10 - - - -
09/10:30pm 10.0 W 9 11 1019.0 - 0.0 - Partly cloudy 10 - - - -
09/10:00pm 10.3 WSW 9 13 1018.7 - 0.0 - Partly cloudy 10 - - - -
09/09:30pm 10.3 W 8 11 1018.2 - 0.0 - Partly cloudy 10 - - - -
09/09:00pm 11.0 WSW 10 14 1018.0 - 0.0 - Cloudy 10 - - - -
09/08:30pm 11.4 WSW 8 12 1017.7 - 0.0 - Partly cloudy 10 - - - -
09/08:00pm 11.5 WSW 9 14 1017.3 - 0.0 - Partly cloudy 10 - - - -
09/07:30pm 12.0 WSW 10 14 1016.8 - 0.0 - Partly cloudy 10 - - - -
09/07:00pm 12.2 WSW 15 20 1016.2 - 0.0 - Cloudy 10 - - - -
09/06:30pm 12.8 SW 15 22 1015.8 - 0.0 - Partly cloudy 10 - - - -
09/06:00pm 12.8 SW 16 25 1015.2 - 0.0 - Mostly cloudy 10 - - - -
09/05:30pm 13.4 SW 19 26 1014.7 - 0.0 - Partly cloudy 10 - - - -
09/05:04pm 13.3 SW 19 29 1014.4 - 0.0 - - 10 - - - -
09/05:00pm 13.8 SW 19 27 1014.2 - 0.0 - - 10 - - - -
09/04:30pm 14.1 SW 20 28 1014.0 - 0.0 - Partly cloudy 10 - - - -
09/04:10pm 14.5 SW 17 27 1013.8 - 0.0 - Partly cloudy 10 - - - -
09/04:00pm 14.0 SW 15 24 1013.5 - 0.0 - Partly cloudy 10 - - - -
09/03:30pm 15.3 SW 21 32 1013.4 - 0.0 - Partly cloudy 10 - - - -
09/03:00pm 14.9 SW 18 29 1012.6 - 0.0 - Partly cloudy 10 - - - -
09/02:30pm 16.2 WSW 20 30 1012.6 - 0.0 - Partly cloudy 10 - - - -
09/02:24pm 16.2 SW 16 30 1012.5 - 0.0 - Partly cloudy 10 - - - -
09/02:00pm 14.9 SW 15 20 1012.2 - 0.0 - Partly cloudy 10 - - - -
09/01:30pm 14.4 SW 20 30 1012.2 - 0.0 - Partly cloudy 10 - - - -
09/01:00pm 13.8 SW 21 31 1012.1 - 0.0 - Partly cloudy 10 - - - -
09/12:44pm 13.5 SW 16 28 1011.8 - 0.0 - Partly cloudy 10 - - - -
09/12:30pm 14.3 SW 18 27 1011.6 - 0.0 - Partly cloudy 10 - - - -
09/12:20pm 14.5 SW 20 30 1011.6 - 0.0 - Partly cloudy 10 - - - -
09/12:07pm 13.8 WSW 18 27 1011.3 - 0.0 - Partly cloudy 10 - - - -
09/12:00pm 14.1 WSW 18 31 1011.1 - 0.0 - Cloudy 10 - - - -
09/11:30am 14.4 SW 15 28 1010.7 - 0.0 - Partly cloudy 10 - - - -
09/11:00am 13.0 SW 17 30 1010.4 - 0.0 - Partly cloudy 10 - - - -
09/10:30am 13.4 SW 20 30 1009.9 - 0.0 - Partly cloudy 10 - - - -
09/10:26am 12.9 SW 19 30 1010.0 - 0.0 - Partly cloudy 10 - - - -
09/10:15am 11.9 SW 17 26 1010.0 - 0.0 - Partly cloudy 10 - - - -
09/10:00am 13.0 SW 13 21 1009.7 - 0.0 - Partly cloudy 10 - - - -
09/09:30am 12.5 SSW 18 33 1009.1 - 0.0 - Partly cloudy 10 - - - -
09/09:04am 12.2 SW 17 30 1008.7 - 0.0 - Partly cloudy 10 - - - -
09/09:00am 11.8 SSW 16 25 1008.8 - 6.4 - Partly cloudy 10 - - - -
09/08:32am 11.8 SW 15 25 1008.3 - 6.4 - Partly cloudy 10 - - - -
09/08:30am 11.6 SW 17 26 1008.3 - 6.4 - - 10 - - - -
09/08:07am 11.3 SW 15 28 1007.6 - 6.4 - - 10 - - - -
09/08:00am 11.0 SW 12 20 1007.5 - 6.4 - Partly cloudy 10 - - - -
09/07:30am 10.3 SW 12 18 1007.1 - 6.4 - - 10 - - - -
09/07:06am 9.9 WSW 15 27 1006.4 - 6.4 - Partly cloudy 10 - - - -
09/07:00am 9.9 WSW 12 25 1006.2 - 6.4 - Partly cloudy 10 - - - -
09/06:51am 9.6 WSW 13 20 1006.1 - 6.4 - Partly cloudy 10 - - - -
09/06:30am 8.8 WNW 6 9 1005.8 - 6.4 - Partly cloudy 10 - - - -
09/06:00am 8.3 WNW 8 10 1005.4 - 6.4 - Cloudy 10 - - - -
09/05:30am 8.2 W 8 12 1005.0 - 6.4 - Partly cloudy 10 - - - -
09/05:00am 7.6 WNW 8 12 1004.3 - 6.4 - Partly cloudy 10 - - - -
09/04:30am 7.9 WSW 8 16 1003.7 - 6.4 - Partly cloudy 10 - - - -
09/04:00am 8.5 WSW 13 21 1003.1 - 6.4 - - 10 - - - -
09/03:30am 8.8 WSW 14 20 1002.5 - 6.4 - - 10 - - - -
09/03:00am 9.2 WSW 14 20 1002.1 - 6.4 - Partly cloudy 10 - - - -
09/02:30am 9.0 WSW 12 18 1001.3 - 6.4 - Partly cloudy 10 - - - -
09/02:00am 9.6 WSW 15 25 1000.9 - 6.4 - Partly cloudy 10 - - - -
09/01:56am 9.6 WSW 15 25 1000.8 - 6.4 - - 10 - - - -
09/01:30am 9.3 WSW 13 18 1000.6 - 6.4 - Partly cloudy 10 - - - -
09/01:00am 9.6 WSW 14 24 1000.2 - 6.4 - - 10 - - - -
09/12:30am 9.9 WSW 16 27 999.9 - 6.4 - Partly cloudy 10 - - - -
09/12:00am 10.5 WSW 20 34 999.0 - 6.4 - Mostly clear 10 - - - -
 
Date/Time
EDT
Temp
°C
Wind Pressure Rain since
9am
mm
Weather Cloud Vis
km
Sea
Height
m
Swell
Dir  Spd
kts
Gust
kts
hPa Trend Height
m
Period
s
Dir
08/11:52pm 10.4 WSW 19 32 998.7 - 6.4 - - 10 - - - -
08/11:30pm 10.5 WSW 19 27 998.2 - 6.4 - - 10 - - - -
08/11:00pm 10.7 WSW 19 31 997.6 - 6.4 - - 10 - - - -
08/10:55pm 10.8 WSW 19 31 997.4 - 6.4 - - 10 - - - -
08/10:30pm 10.9 W 19 27 997.1 - 6.4 - Partly cloudy 10 - - - -
08/10:16pm 11.1 W 16 26 996.9 - 6.4 - Partly cloudy 10 - - - -
08/10:00pm 11.4 W 17 26 996.5 - 6.4 - Partly cloudy 10 - - - -
08/09:54pm 11.3 W 18 28 996.3 - 6.4 - Partly cloudy 10 - - - -
08/09:30pm 11.6 W 18 27 995.5 - 6.4 - Partly cloudy 10 - - - -
08/09:00pm 11.8 W 19 31 994.6 - 6.4 - Cloudy 10 - - - -
08/08:52pm 11.9 W 19 29 994.3 - 6.4 - Partly cloudy 10 - - - -
08/08:30pm 11.8 W 20 28 993.8 - 6.4 - Partly cloudy 10 - - - -
08/08:00pm 12.4 W 21 28 993.2 - 6.4 - Partly cloudy 10 - - - -
08/07:30pm 12.9 W 21 31 992.4 - 6.4 - Partly cloudy 10 - - - -
08/07:00pm 12.8 W 22 33 991.8 - 6.4 - Partly cloudy 10 - - - -
08/06:45pm 12.8 W 19 30 991.2 - 6.4 - Partly cloudy 10 - - - -
08/06:35pm 12.7 WNW 21 28 991.1 - 6.4 - Partly cloudy 10 - - - -
08/06:30pm 12.7 WNW 19 28 990.9 - 6.4 - Partly cloudy 8 - - - -
08/06:27pm 12.3 WNW 17 28 990.8 - 6.4 - Partly cloudy 6 - - - -
08/06:12pm 12.4 WNW 19 27 990.6 - 6.4 - Partly cloudy 5 - - - -
08/06:05pm 12.6 WNW 18 27 990.4 - 6.4 - Partly cloudy 7 - - - -
08/06:00pm 12.9 WNW 20 31 990.3 - 6.4 - Cloudy 7 - - - -
08/05:52pm 13.0 WNW 20 30 990.0 - 6.4 - Partly cloudy 5 - - - -
08/05:48pm 13.1 WNW 21 29 989.9 - 6.4 - Partly cloudy 5 - - - -
08/05:30pm 14.0 WNW 22 29 989.5 - 6.4 - Partly cloudy 10 - - - -
08/05:00pm 14.9 WNW 21 32 989.0 - 6.4 - Partly cloudy 10 - - - -
08/04:34pm 16.6 WNW 21 31 988.4 - 6.4 - Partly cloudy 10 - - - -
08/04:30pm 16.6 WNW 23 32 988.2 - 6.4 - Partly cloudy 10 - - - -
08/04:00pm 16.9 NW 21 32 987.4 - 6.4 - Partly cloudy 10 - - - -
08/03:35pm 16.3 NW 20 31 987.9 - 6.4 - Partly cloudy 10 - - - -
08/03:30pm 15.8 NW 20 31 988.0 - 6.4 - Partly cloudy 9 - - - -
08/03:20pm 14.7 NW 22 30 988.4 - 6.2 - Partly cloudy 5 - - - -
08/03:00pm 15.2 NW 21 32 988.8 - 6.2 - Cloudy 7 - - - -
08/02:30pm 15.9 NW 24 35 989.5 - 6.2 - Partly cloudy 10 - - - -
08/02:00pm 16.5 NW 19 33 990.1 - 6.2 - Partly cloudy 10 - - - -
08/01:32pm 16.7 NW 20 30 990.6 - 6.2 - Partly cloudy 10 - - - -
08/01:30pm 17.0 NW 21 30 990.7 - 6.2 - Partly cloudy 10 - - - -
08/01:03pm 17.3 NW 19 29 991.0 - 6.2 - Partly cloudy 10 - - - -
08/01:00pm 16.8 NW 19 26 991.0 - 6.2 - Partly cloudy 10 - - - -
08/12:30pm 17.1 NW 20 31 991.3 - 6.2 - Partly cloudy 10 - - - -
08/12:00pm 16.5 NW 20 30 991.1 - 6.2 Recent precip. Cloudy 10 - - - -
08/11:39am 15.3 NNW 18 33 991.0 - 6.2 - Partly cloudy 6 - - - -
08/11:30am 15.6 NNW 17 24 991.0 - 6.2 - Partly cloudy 8 - - - -
08/11:21am 15.9 NW 18 26 991.1 - 6.2 - Partly cloudy 8 - - - -
08/11:16am 15.9 NW 19 29 991.1 - 6.2 - Partly cloudy 8 - - - -
08/11:14am 15.9 NNW 20 29 991.1 - 6.2 - Partly cloudy 7 - - - -
08/11:00am 16.1 NNW 20 29 991.3 - 5.8 - Partly cloudy 6 - - - -
08/10:35am 16.2 NNW 19 29 991.2 - 5.4 - Partly cloudy 5 - - - -
08/10:30am 16.2 NNW 19 26 991.2 - 5.4 - Partly cloudy 5 - - - -
08/10:21am 16.0 N 19 33 991.2 - 5.4 - Partly cloudy 5 - - - -
08/10:18am 16.0 N 19 33 991.2 - 5.4 - Partly cloudy 6 - - - -
08/10:00am 15.9 N 18 29 991.2 - 5.4 - Cloudy 4 - - - -
08/09:47am 15.6 N 15 25 991.4 - 4.6 - Partly cloudy 3 - - - -
08/09:30am 15.0 NNE 12 17 992.0 - 1.6 - Partly cloudy 4 - - - -
08/09:06am 14.9 NE 15 21 992.8 - 0.2 - Cloudy 5 - - - -
08/09:05am 14.9 NE 15 21 992.9 - 0.0 - Cloudy 6 - - - -
08/09:00am 14.9 NE 16 22 992.8 - 16.6 Recent precip. Cloudy 6 - - - -
08/08:59am 14.9 NE 16 23 992.9 - 16.6 - Partly cloudy 6 - - - -
08/08:30am 14.6 E 11 17 994.9 - 15.6 - Partly cloudy 6 - - - -
08/08:00am 13.8 E 18 30 995.8 - 14.6 - Partly cloudy 3 - - - -
08/07:45am 13.7 ESE 19 29 996.1 - 13.2 - Partly cloudy 3 - - - -
08/07:30am 13.7 E 13 20 997.2 - 11.0 - Partly cloudy 5 - - - -
08/07:00am 13.5 E 11 18 998.1 - 8.8 - Partly cloudy 5 - - - -
08/06:30am 12.6 ESE 12 18 999.0 - 5.2 - Partly cloudy 5 - - - -
08/06:25am 12.6 ESE 11 18 998.7 - 4.8 - Partly cloudy 4 - - - -
08/06:09am 12.7 ESE 23 33 998.9 - 3.2 - Partly cloudy 5 - - - -
08/06:00am 12.8 ESE 23 30 997.7 - 2.6 Rain Cloudy 5 - - - -
08/05:58am 12.8 ESE 22 30 997.8 - 2.6 - Partly cloudy 5 - - - -
08/05:52am 12.8 SE 20 29 998.2 - 2.2 - Partly cloudy 5 - - - -
08/05:30am 13.0 ESE 17 21 999.0 - 1.0 - Partly cloudy 10 - - - -
08/05:23am 13.0 ESE 17 22 999.1 - 1.0 - Partly cloudy 10 - - - -
08/05:00am 13.0 ESE 16 20 999.7 - 0.8 - Partly cloudy 10 - - - -
08/04:30am 13.5 E 10 17 1001.5 - 0.4 - Partly cloudy 10 - - - -
08/04:00am 13.3 E 11 16 1001.0 - 0.2 - Partly cloudy 10 - - - -
08/03:30am 13.4 E 11 17 1002.3 - 0.2 - Partly cloudy 10 - - - -
08/03:00am 13.5 E 7 12 1003.4 - 0.0 - Mostly cloudy 10 - - - -
08/02:30am 13.2 E 9 13 1003.1 - 0.0 - Partly cloudy 10 - - - -
08/02:00am 13.3 E 9 13 1004.4 - 0.0 - Partly cloudy 10 - - - -
08/01:30am 13.4 E 8 13 1005.3 - 0.0 - Partly cloudy 10 - - - -
08/01:00am 12.9 ENE 8 12 1006.2 - 0.0 - Partly cloudy 10 - - - -
08/12:41am 12.3 E 5 9 1006.4 - 0.0 - Partly cloudy 10 - - - -
08/12:30am 11.9 E 6 10 1006.4 - 0.0 - Partly cloudy 10 - - - -
08/12:05am 10.4 ESE 6 7 1006.9 - 0.0 - Partly cloudy 10 - - - -
08/12:02am 10.6 ESE 6 7 1007.0 - 0.0 - Partly cloudy 10 - - - -
08/12:00am 10.3 ESE 6 7 1007.1 - 0.0 - Partly cloudy 10 - - - -
 
Date/Time
EDT
Temp
°C
Wind Pressure Rain since
9am
mm
Weather Cloud Vis
km
Sea
Height
m
Swell
Dir  Spd
kts
Gust
kts
hPa Trend Height
m
Period
s
Dir
07/11:46pm 9.8 ESE 3 5 1007.2 - 0.0 - Partly cloudy 5 - - - -
07/11:30pm 9.1 SSE 3 5 1007.4 - 0.0 - - 10 - - - -
07/11:00pm 9.7 S 4 5 1007.9 - 0.0 - - 10 - - - -
07/10:30pm 10.6 S 6 7 1008.1 - 0.0 - - 10 - - - -
07/10:00pm 10.7 SSE 3 5 1008.4 - 0.0 - - 10 - - - -
07/09:30pm 11.4 ESE 1 5 1008.6 - 0.0 - - 10 - - - -
07/09:00pm 12.5 CALM 0 0 1008.9 - 0.0 - - 10 - - - -
07/08:30pm 13.7 W 4 7 1009.2 - 0.0 - - 10 - - - -
07/08:00pm 14.8 NW 7 10 1009.7 - 0.0 - - 10 - - - -
07/07:30pm 15.9 NW 11 13 1009.8 - 0.0 - - 10 - - - -
07/07:00pm 16.4 NNW 10 14 1010.0 - 0.0 - - 10 - - - -
07/06:30pm 16.7 NW 8 11 1010.4 - 0.0 - - 10 - - - -
07/06:00pm 17.0 NW 11 15 1010.8 - 0.0 - Mostly clear 10 - - - -
07/05:30pm 16.4 NW 13 17 1011.1 - 0.0 - Partly cloudy 10 - - - -
07/05:00pm 16.4 NW 17 22 1011.4 - 0.0 - Partly cloudy 10 - - - -
07/04:30pm 15.6 NW 15 20 1011.6 - 0.0 - Partly cloudy 10 - - - -
07/04:00pm 16.9 NW 17 22 1011.9 - 0.0 - Partly cloudy 10 - - - -
07/03:30pm 16.4 NNW 13 18 1011.9 - 0.0 - Partly cloudy 10 - - - -
07/03:00pm 17.1 NNW 13 19 1012.2 - 0.0 - Mostly cloudy 10 - - - -
07/02:30pm 15.9 NW 11 17 1012.7 - 0.0 - Partly cloudy 10 - - - -
07/02:00pm 16.4 NW 13 18 1012.5 - 0.0 - Partly cloudy 10 - - - -
07/01:30pm 15.5 NW 14 20 1012.7 - 0.0 - Partly cloudy 10 - - - -
07/01:00pm 15.6 NNW 12 17 1012.7 - 0.0 - Partly cloudy 10 - - - -
07/12:30pm 15.7 NNW 10 15 1013.1 - 0.0 - Partly cloudy 10 - - - -

Other Formats:

Comma delimited format used in spreadsheet applications
http://www.bom.gov.au/fwo/IDT60701/IDT60701.95957.axf

JavaScript Object Notation format (JSON) in row-major order
http://www.bom.gov.au/fwo/IDT60701/IDT60701.95957.json